<?xml version="1.0" encoding="UTF-8" standalone="no" ?>
<gpx xmlns="http://www.topografix.com/GPX/1/1" xmlns:xsi="http://www.w3.org/2001/XMLSchema-instance" xsi:schemaLocation="http://www.topografix.com/GPX/1/1 http://www.topografix.com/GPX/1/1/gpx.xsd" version="1.1" creator="VisuGPX - https://www.visugpx.com">
  <metadata>
    <name>Extreme-Loue-33-450-B</name>
    <desc><![CDATA[Extreme Loue - 33 km - 450 m - Deuxième partie : 20 km - 400 m]]></desc>
  </metadata>
  <trk>
    <name><![CDATA[Extreme-Loue-33-450-B]]></name>
    <trkseg>
      <trkpt lat="47.08036" lon="6.18636">
        <ele>342.048737</ele>
        <time>2020-08-22T08:11:27Z</time>
      </trkpt>
      <trkpt lat="47.0805" lon="6.18654">
        <ele>340.203918</ele>
        <time>2020-08-22T08:11:31Z</time>
      </trkpt>
      <trkpt lat="47.08074" lon="6.18677">
        <ele>339.459229</ele>
        <time>2020-08-22T08:11:38Z</time>
      </trkpt>
      <trkpt lat="47.08112" lon="6.1873">
        <ele>340.40625</ele>
        <time>2020-08-22T08:11:50Z</time>
      </trkpt>
      <trkpt lat="47.08126" lon="6.18814">
        <ele>340.952759</ele>
        <time>2020-08-22T08:12:04Z</time>
      </trkpt>
      <trkpt lat="47.08146" lon="6.18996">
        <ele>341.978119</ele>
        <time>2020-08-22T08:12:33Z</time>
      </trkpt>
      <trkpt lat="47.08153" lon="6.19015">
        <ele>342.148865</ele>
        <time>2020-08-22T08:12:37Z</time>
      </trkpt>
      <trkpt lat="47.08174" lon="6.19024">
        <ele>341.421661</ele>
        <time>2020-08-22T08:12:42Z</time>
      </trkpt>
      <trkpt lat="47.08227" lon="6.19026">
        <ele>341.06604</ele>
        <time>2020-08-22T08:12:54Z</time>
      </trkpt>
      <trkpt lat="47.08253" lon="6.19025">
        <ele>341.589874</ele>
        <time>2020-08-22T08:13:00Z</time>
      </trkpt>
      <trkpt lat="47.08302" lon="6.19014">
        <ele>342.222504</ele>
        <time>2020-08-22T08:13:12Z</time>
      </trkpt>
      <trkpt lat="47.08321" lon="6.19017">
        <ele>342.582489</ele>
        <time>2020-08-22T08:13:16Z</time>
      </trkpt>
      <trkpt lat="47.08335" lon="6.19027">
        <ele>342.855011</ele>
        <time>2020-08-22T08:13:20Z</time>
      </trkpt>
      <trkpt lat="47.08364" lon="6.19037">
        <ele>343.674622</ele>
        <time>2020-08-22T08:13:27Z</time>
      </trkpt>
      <trkpt lat="47.0839" lon="6.19039">
        <ele>346.648987</ele>
        <time>2020-08-22T08:13:33Z</time>
      </trkpt>
      <trkpt lat="47.08411" lon="6.19022">
        <ele>347.549194</ele>
        <time>2020-08-22T08:13:39Z</time>
      </trkpt>
      <trkpt lat="47.08449" lon="6.19">
        <ele>350.575867</ele>
        <time>2020-08-22T08:13:48Z</time>
      </trkpt>
      <trkpt lat="47.08466" lon="6.1898">
        <ele>351.080017</ele>
        <time>2020-08-22T08:13:53Z</time>
      </trkpt>
      <trkpt lat="47.08491" lon="6.18957">
        <ele>352.675812</ele>
        <time>2020-08-22T08:14:00Z</time>
      </trkpt>
      <trkpt lat="47.08509" lon="6.18944">
        <ele>353.467804</ele>
        <time>2020-08-22T08:14:05Z</time>
      </trkpt>
      <trkpt lat="47.08549" lon="6.18924">
        <ele>357.170654</ele>
        <time>2020-08-22T08:14:15Z</time>
      </trkpt>
      <trkpt lat="47.08642" lon="6.18854">
        <ele>362.739197</ele>
        <time>2020-08-22T08:14:39Z</time>
      </trkpt>
      <trkpt lat="47.08697" lon="6.18825">
        <ele>365.189606</ele>
        <time>2020-08-22T08:14:53Z</time>
      </trkpt>
      <trkpt lat="47.08761" lon="6.18815">
        <ele>369.064423</ele>
        <time>2020-08-22T08:15:08Z</time>
      </trkpt>
      <trkpt lat="47.08788" lon="6.18819">
        <ele>371.13739</ele>
        <time>2020-08-22T08:15:14Z</time>
      </trkpt>
      <trkpt lat="47.08815" lon="6.18829">
        <ele>374.721771</ele>
        <time>2020-08-22T08:15:21Z</time>
      </trkpt>
      <trkpt lat="47.08862" lon="6.18848">
        <ele>376.581238</ele>
        <time>2020-08-22T08:15:32Z</time>
      </trkpt>
      <trkpt lat="47.08901" lon="6.18881">
        <ele>376.255737</ele>
        <time>2020-08-22T08:15:43Z</time>
      </trkpt>
      <trkpt lat="47.08928" lon="6.18914">
        <ele>376.37796</ele>
        <time>2020-08-22T08:15:51Z</time>
      </trkpt>
      <trkpt lat="47.08994" lon="6.19046">
        <ele>376.065094</ele>
        <time>2020-08-22T08:16:17Z</time>
      </trkpt>
      <trkpt lat="47.09021" lon="6.19094">
        <ele>376.746552</ele>
        <time>2020-08-22T08:16:27Z</time>
      </trkpt>
      <trkpt lat="47.09062" lon="6.19147">
        <ele>372.990112</ele>
        <time>2020-08-22T08:16:39Z</time>
      </trkpt>
      <trkpt lat="47.09081" lon="6.1919">
        <ele>372.735016</ele>
        <time>2020-08-22T08:16:48Z</time>
      </trkpt>
      <trkpt lat="47.09095" lon="6.19233">
        <ele>373.131653</ele>
        <time>2020-08-22T08:16:55Z</time>
      </trkpt>
      <trkpt lat="47.09134" lon="6.19323">
        <ele>371.80069</ele>
        <time>2020-08-22T08:17:12Z</time>
      </trkpt>
      <trkpt lat="47.09147" lon="6.19346">
        <ele>370.526245</ele>
        <time>2020-08-22T08:17:17Z</time>
      </trkpt>
      <trkpt lat="47.09206" lon="6.19429">
        <ele>369.379761</ele>
        <time>2020-08-22T08:17:36Z</time>
      </trkpt>
      <trkpt lat="47.09252" lon="6.19486">
        <ele>372.264404</ele>
        <time>2020-08-22T08:17:50Z</time>
      </trkpt>
      <trkpt lat="47.09278" lon="6.19506">
        <ele>374.192261</ele>
        <time>2020-08-22T08:17:57Z</time>
      </trkpt>
      <trkpt lat="47.09348" lon="6.19528">
        <ele>379.199493</ele>
        <time>2020-08-22T08:18:14Z</time>
      </trkpt>
      <trkpt lat="47.09417" lon="6.19556">
        <ele>382.98468</ele>
        <time>2020-08-22T08:18:30Z</time>
      </trkpt>
      <trkpt lat="47.09455" lon="6.19567">
        <ele>383.627533</ele>
        <time>2020-08-22T08:18:39Z</time>
      </trkpt>
      <trkpt lat="47.09542" lon="6.19586">
        <ele>382.731506</ele>
        <time>2020-08-22T08:19:00Z</time>
      </trkpt>
      <trkpt lat="47.0955" lon="6.19579">
        <ele>381.378113</ele>
        <time>2020-08-22T08:19:02Z</time>
      </trkpt>
      <trkpt lat="47.09557" lon="6.19561">
        <ele>383.726624</ele>
        <time>2020-08-22T08:19:05Z</time>
      </trkpt>
      <trkpt lat="47.09563" lon="6.19554">
        <ele>385.093536</ele>
        <time>2020-08-22T08:19:07Z</time>
      </trkpt>
      <trkpt lat="47.09625" lon="6.19551">
        <ele>390.925476</ele>
        <time>2020-08-22T08:19:22Z</time>
      </trkpt>
      <trkpt lat="47.09649" lon="6.19554">
        <ele>392.612488</ele>
        <time>2020-08-22T08:19:27Z</time>
      </trkpt>
      <trkpt lat="47.09673" lon="6.19567">
        <ele>392.161255</ele>
        <time>2020-08-22T08:19:33Z</time>
      </trkpt>
      <trkpt lat="47.09704" lon="6.19576">
        <ele>394.115234</ele>
        <time>2020-08-22T08:19:41Z</time>
      </trkpt>
      <trkpt lat="47.09725" lon="6.19588">
        <ele>396.010986</ele>
        <time>2020-08-22T08:19:46Z</time>
      </trkpt>
      <trkpt lat="47.09773" lon="6.19628">
        <ele>399.1315</ele>
        <time>2020-08-22T08:19:59Z</time>
      </trkpt>
      <trkpt lat="47.09825" lon="6.19637">
        <ele>404.621643</ele>
        <time>2020-08-22T08:20:11Z</time>
      </trkpt>
      <trkpt lat="47.09899" lon="6.1964">
        <ele>410.93399</ele>
        <time>2020-08-22T08:20:28Z</time>
      </trkpt>
      <trkpt lat="47.09978" lon="6.1964">
        <ele>416.767731</ele>
        <time>2020-08-22T08:20:47Z</time>
      </trkpt>
      <trkpt lat="47.10021" lon="6.19608">
        <ele>421.454651</ele>
        <time>2020-08-22T08:20:58Z</time>
      </trkpt>
      <trkpt lat="47.10065" lon="6.19597">
        <ele>426.300079</ele>
        <time>2020-08-22T08:21:08Z</time>
      </trkpt>
      <trkpt lat="47.10069" lon="6.19584">
        <ele>430.509491</ele>
        <time>2020-08-22T08:21:11Z</time>
      </trkpt>
      <trkpt lat="47.10064" lon="6.19577">
        <ele>431.980225</ele>
        <time>2020-08-22T08:21:12Z</time>
      </trkpt>
      <trkpt lat="47.10042" lon="6.19577">
        <ele>432.285767</ele>
        <time>2020-08-22T08:21:17Z</time>
      </trkpt>
      <trkpt lat="47.10019" lon="6.19579">
        <ele>433.69696</ele>
        <time>2020-08-22T08:21:23Z</time>
      </trkpt>
      <trkpt lat="47.09996" lon="6.1959">
        <ele>431.149292</ele>
        <time>2020-08-22T08:21:28Z</time>
      </trkpt>
      <trkpt lat="47.09936" lon="6.19589">
        <ele>433.411011</ele>
        <time>2020-08-22T08:21:42Z</time>
      </trkpt>
      <trkpt lat="47.09897" lon="6.19576">
        <ele>434.479401</ele>
        <time>2020-08-22T08:21:52Z</time>
      </trkpt>
      <trkpt lat="47.09835" lon="6.19547">
        <ele>433.714233</ele>
        <time>2020-08-22T08:22:07Z</time>
      </trkpt>
      <trkpt lat="47.09802" lon="6.19515">
        <ele>432.709686</ele>
        <time>2020-08-22T08:22:16Z</time>
      </trkpt>
      <trkpt lat="47.0979" lon="6.19483">
        <ele>434.305695</ele>
        <time>2020-08-22T08:22:22Z</time>
      </trkpt>
      <trkpt lat="47.09787" lon="6.19459">
        <ele>436.438232</ele>
        <time>2020-08-22T08:22:26Z</time>
      </trkpt>
      <trkpt lat="47.09788" lon="6.19377">
        <ele>440.266266</ele>
        <time>2020-08-22T08:22:39Z</time>
      </trkpt>
      <trkpt lat="47.09792" lon="6.19338">
        <ele>441.268311</ele>
        <time>2020-08-22T08:22:45Z</time>
      </trkpt>
      <trkpt lat="47.09801" lon="6.19295">
        <ele>443.50116</ele>
        <time>2020-08-22T08:22:52Z</time>
      </trkpt>
      <trkpt lat="47.09823" lon="6.19224">
        <ele>452.26474</ele>
        <time>2020-08-22T08:23:05Z</time>
      </trkpt>
      <trkpt lat="47.09819" lon="6.19206">
        <ele>452.921997</ele>
        <time>2020-08-22T08:23:08Z</time>
      </trkpt>
      <trkpt lat="47.09806" lon="6.19197">
        <ele>454.341309</ele>
        <time>2020-08-22T08:23:11Z</time>
      </trkpt>
      <trkpt lat="47.09792" lon="6.19196">
        <ele>455.019897</ele>
        <time>2020-08-22T08:23:14Z</time>
      </trkpt>
      <trkpt lat="47.09777" lon="6.19203">
        <ele>456.097504</ele>
        <time>2020-08-22T08:23:18Z</time>
      </trkpt>
      <trkpt lat="47.09691" lon="6.19272">
        <ele>461.658234</ele>
        <time>2020-08-22T08:23:41Z</time>
      </trkpt>
      <trkpt lat="47.09658" lon="6.19311">
        <ele>466.400513</ele>
        <time>2020-08-22T08:23:51Z</time>
      </trkpt>
      <trkpt lat="47.09636" lon="6.19344">
        <ele>461.041138</ele>
        <time>2020-08-22T08:23:58Z</time>
      </trkpt>
      <trkpt lat="47.09624" lon="6.19356">
        <ele>458.648743</ele>
        <time>2020-08-22T08:24:02Z</time>
      </trkpt>
      <trkpt lat="47.09609" lon="6.19359">
        <ele>459.47876</ele>
        <time>2020-08-22T08:24:05Z</time>
      </trkpt>
      <trkpt lat="47.09594" lon="6.19358">
        <ele>457.812103</ele>
        <time>2020-08-22T08:24:09Z</time>
      </trkpt>
      <trkpt lat="47.09552" lon="6.19331">
        <ele>462.677002</ele>
        <time>2020-08-22T08:24:19Z</time>
      </trkpt>
      <trkpt lat="47.0953" lon="6.19309">
        <ele>466.53717</ele>
        <time>2020-08-22T08:24:26Z</time>
      </trkpt>
      <trkpt lat="47.09451" lon="6.19215">
        <ele>474.621521</ele>
        <time>2020-08-22T08:24:49Z</time>
      </trkpt>
      <trkpt lat="47.09434" lon="6.19183">
        <ele>476.005432</ele>
        <time>2020-08-22T08:24:56Z</time>
      </trkpt>
      <trkpt lat="47.09416" lon="6.19112">
        <ele>478.690002</ele>
        <time>2020-08-22T08:25:08Z</time>
      </trkpt>
      <trkpt lat="47.09409" lon="6.19064">
        <ele>477.522369</ele>
        <time>2020-08-22T08:25:16Z</time>
      </trkpt>
      <trkpt lat="47.09403" lon="6.18995">
        <ele>478.204681</ele>
        <time>2020-08-22T08:25:27Z</time>
      </trkpt>
      <trkpt lat="47.09397" lon="6.18974">
        <ele>477.904053</ele>
        <time>2020-08-22T08:25:30Z</time>
      </trkpt>
      <trkpt lat="47.09383" lon="6.18943">
        <ele>477.632507</ele>
        <time>2020-08-22T08:25:36Z</time>
      </trkpt>
      <trkpt lat="47.09361" lon="6.1888">
        <ele>480.741913</ele>
        <time>2020-08-22T08:25:47Z</time>
      </trkpt>
      <trkpt lat="47.09354" lon="6.18846">
        <ele>482.117798</ele>
        <time>2020-08-22T08:25:53Z</time>
      </trkpt>
      <trkpt lat="47.09346" lon="6.18784">
        <ele>484.05249</ele>
        <time>2020-08-22T08:26:03Z</time>
      </trkpt>
      <trkpt lat="47.09344" lon="6.18741">
        <ele>483.815796</ele>
        <time>2020-08-22T08:26:10Z</time>
      </trkpt>
      <trkpt lat="47.09349" lon="6.18686">
        <ele>483.170532</ele>
        <time>2020-08-22T08:26:19Z</time>
      </trkpt>
      <trkpt lat="47.09365" lon="6.18597">
        <ele>478.95636</ele>
        <time>2020-08-22T08:26:33Z</time>
      </trkpt>
      <trkpt lat="47.09423" lon="6.18511">
        <ele>472.692169</ele>
        <time>2020-08-22T08:26:53Z</time>
      </trkpt>
      <trkpt lat="47.09445" lon="6.18497">
        <ele>468.61795</ele>
        <time>2020-08-22T08:26:58Z</time>
      </trkpt>
      <trkpt lat="47.09493" lon="6.18486">
        <ele>464.487488</ele>
        <time>2020-08-22T08:27:10Z</time>
      </trkpt>
      <trkpt lat="47.09513" lon="6.18486">
        <ele>463.388397</ele>
        <time>2020-08-22T08:27:14Z</time>
      </trkpt>
      <trkpt lat="47.09612" lon="6.18505">
        <ele>459.564514</ele>
        <time>2020-08-22T08:27:38Z</time>
      </trkpt>
      <trkpt lat="47.09616" lon="6.18513">
        <ele>462.003876</ele>
        <time>2020-08-22T08:27:39Z</time>
      </trkpt>
      <trkpt lat="47.09631" lon="6.18529">
        <ele>466.491211</ele>
        <time>2020-08-22T08:27:44Z</time>
      </trkpt>
      <trkpt lat="47.09649" lon="6.18538">
        <ele>468.525085</ele>
        <time>2020-08-22T08:27:48Z</time>
      </trkpt>
      <trkpt lat="47.09693" lon="6.18543">
        <ele>470.056793</ele>
        <time>2020-08-22T08:27:58Z</time>
      </trkpt>
      <trkpt lat="47.09733" lon="6.18541">
        <ele>471.060974</ele>
        <time>2020-08-22T08:28:08Z</time>
      </trkpt>
      <trkpt lat="47.09785" lon="6.18522">
        <ele>470.307434</ele>
        <time>2020-08-22T08:28:20Z</time>
      </trkpt>
      <trkpt lat="47.0987" lon="6.18472">
        <ele>470.679993</ele>
        <time>2020-08-22T08:28:42Z</time>
      </trkpt>
      <trkpt lat="47.09925" lon="6.18446">
        <ele>467.075317</ele>
        <time>2020-08-22T08:28:55Z</time>
      </trkpt>
      <trkpt lat="47.09964" lon="6.18437">
        <ele>464.403259</ele>
        <time>2020-08-22T08:29:04Z</time>
      </trkpt>
      <trkpt lat="47.09996" lon="6.18446">
        <ele>466.178009</ele>
        <time>2020-08-22T08:29:12Z</time>
      </trkpt>
      <trkpt lat="47.10074" lon="6.18497">
        <ele>468.72171</ele>
        <time>2020-08-22T08:29:32Z</time>
      </trkpt>
      <trkpt lat="47.10177" lon="6.18589">
        <ele>468.741211</ele>
        <time>2020-08-22T08:30:00Z</time>
      </trkpt>
      <trkpt lat="47.10221" lon="6.18625">
        <ele>467.285828</ele>
        <time>2020-08-22T08:30:12Z</time>
      </trkpt>
      <trkpt lat="47.10278" lon="6.18666">
        <ele>469.85675</ele>
        <time>2020-08-22T08:30:26Z</time>
      </trkpt>
      <trkpt lat="47.10319" lon="6.18675">
        <ele>464.809998</ele>
        <time>2020-08-22T08:30:36Z</time>
      </trkpt>
      <trkpt lat="47.10371" lon="6.18705">
        <ele>465.962769</ele>
        <time>2020-08-22T08:30:49Z</time>
      </trkpt>
      <trkpt lat="47.1048" lon="6.18759">
        <ele>468.163849</ele>
        <time>2020-08-22T08:31:16Z</time>
      </trkpt>
      <trkpt lat="47.10619" lon="6.18819">
        <ele>462.498383</ele>
        <time>2020-08-22T08:31:50Z</time>
      </trkpt>
      <trkpt lat="47.10697" lon="6.1883">
        <ele>459.377167</ele>
        <time>2020-08-22T08:32:08Z</time>
      </trkpt>
      <trkpt lat="47.10778" lon="6.18912">
        <ele>463.410889</ele>
        <time>2020-08-22T08:32:31Z</time>
      </trkpt>
      <trkpt lat="47.10796" lon="6.18942">
        <ele>463.814972</ele>
        <time>2020-08-22T08:32:38Z</time>
      </trkpt>
      <trkpt lat="47.10827" lon="6.19016">
        <ele>453.588104</ele>
        <time>2020-08-22T08:32:51Z</time>
      </trkpt>
      <trkpt lat="47.10856" lon="6.19057">
        <ele>449.368652</ele>
        <time>2020-08-22T08:33:01Z</time>
      </trkpt>
      <trkpt lat="47.10875" lon="6.19113">
        <ele>452.799988</ele>
        <time>2020-08-22T08:33:11Z</time>
      </trkpt>
      <trkpt lat="47.10889" lon="6.19177">
        <ele>458.497406</ele>
        <time>2020-08-22T08:33:21Z</time>
      </trkpt>
      <trkpt lat="47.10892" lon="6.19259">
        <ele>464.669983</ele>
        <time>2020-08-22T08:33:34Z</time>
      </trkpt>
      <trkpt lat="47.10891" lon="6.19318">
        <ele>465.399109</ele>
        <time>2020-08-22T08:33:44Z</time>
      </trkpt>
      <trkpt lat="47.10881" lon="6.19403">
        <ele>469.152374</ele>
        <time>2020-08-22T08:33:58Z</time>
      </trkpt>
      <trkpt lat="47.10879" lon="6.19459">
        <ele>467.108185</ele>
        <time>2020-08-22T08:34:06Z</time>
      </trkpt>
      <trkpt lat="47.10887" lon="6.1953">
        <ele>462.622498</ele>
        <time>2020-08-22T08:34:18Z</time>
      </trkpt>
      <trkpt lat="47.10903" lon="6.19585">
        <ele>455.170013</ele>
        <time>2020-08-22T08:34:27Z</time>
      </trkpt>
      <trkpt lat="47.1092" lon="6.1963">
        <ele>448.855652</ele>
        <time>2020-08-22T08:34:36Z</time>
      </trkpt>
      <trkpt lat="47.10951" lon="6.19685">
        <ele>441.619263</ele>
        <time>2020-08-22T08:34:47Z</time>
      </trkpt>
      <trkpt lat="47.10998" lon="6.19782">
        <ele>439.690643</ele>
        <time>2020-08-22T08:35:06Z</time>
      </trkpt>
      <trkpt lat="47.11" lon="6.19848">
        <ele>447.750214</ele>
        <time>2020-08-22T08:35:16Z</time>
      </trkpt>
      <trkpt lat="47.10998" lon="6.19923">
        <ele>456.868805</ele>
        <time>2020-08-22T08:35:28Z</time>
      </trkpt>
      <trkpt lat="47.10987" lon="6.20008">
        <ele>472.582306</ele>
        <time>2020-08-22T08:35:42Z</time>
      </trkpt>
      <trkpt lat="47.10977" lon="6.20114">
        <ele>480.302338</ele>
        <time>2020-08-22T08:35:59Z</time>
      </trkpt>
      <trkpt lat="47.10967" lon="6.203">
        <ele>478.009003</ele>
        <time>2020-08-22T08:36:29Z</time>
      </trkpt>
      <trkpt lat="47.10959" lon="6.20326">
        <ele>476.553802</ele>
        <time>2020-08-22T08:36:33Z</time>
      </trkpt>
      <trkpt lat="47.1093" lon="6.20358">
        <ele>481.096588</ele>
        <time>2020-08-22T08:36:42Z</time>
      </trkpt>
      <trkpt lat="47.10905" lon="6.20371">
        <ele>484.165619</ele>
        <time>2020-08-22T08:36:48Z</time>
      </trkpt>
      <trkpt lat="47.1094" lon="6.20318">
        <ele>487.097992</ele>
        <time>2020-08-22T08:37:00Z</time>
      </trkpt>
      <trkpt lat="47.10949" lon="6.20286">
        <ele>488.816467</ele>
        <time>2020-08-22T08:37:05Z</time>
      </trkpt>
      <trkpt lat="47.10949" lon="6.20247">
        <ele>491.984344</ele>
        <time>2020-08-22T08:37:11Z</time>
      </trkpt>
      <trkpt lat="47.10939" lon="6.20203">
        <ele>498.398804</ele>
        <time>2020-08-22T08:37:19Z</time>
      </trkpt>
      <trkpt lat="47.10933" lon="6.20161">
        <ele>503.130157</ele>
        <time>2020-08-22T08:37:26Z</time>
      </trkpt>
      <trkpt lat="47.10926" lon="6.20067">
        <ele>507.042511</ele>
        <time>2020-08-22T08:37:41Z</time>
      </trkpt>
      <trkpt lat="47.10908" lon="6.19995">
        <ele>509.321991</ele>
        <time>2020-08-22T08:37:53Z</time>
      </trkpt>
      <trkpt lat="47.10888" lon="6.19943">
        <ele>511.758087</ele>
        <time>2020-08-22T08:38:02Z</time>
      </trkpt>
      <trkpt lat="47.10795" lon="6.19744">
        <ele>517.106628</ele>
        <time>2020-08-22T08:38:41Z</time>
      </trkpt>
      <trkpt lat="47.10768" lon="6.19681">
        <ele>522.294556</ele>
        <time>2020-08-22T08:38:52Z</time>
      </trkpt>
      <trkpt lat="47.10754" lon="6.19701">
        <ele>526.539063</ele>
        <time>2020-08-22T08:38:57Z</time>
      </trkpt>
      <trkpt lat="47.10749" lon="6.19758">
        <ele>528.443359</ele>
        <time>2020-08-22T08:39:06Z</time>
      </trkpt>
      <trkpt lat="47.10731" lon="6.19861">
        <ele>532.923401</ele>
        <time>2020-08-22T08:39:23Z</time>
      </trkpt>
      <trkpt lat="47.10707" lon="6.19887">
        <ele>534.442444</ele>
        <time>2020-08-22T08:39:30Z</time>
      </trkpt>
      <trkpt lat="47.10686" lon="6.19902">
        <ele>534.444336</ele>
        <time>2020-08-22T08:39:35Z</time>
      </trkpt>
      <trkpt lat="47.10679" lon="6.20067">
        <ele>542.825012</ele>
        <time>2020-08-22T08:40:02Z</time>
      </trkpt>
      <trkpt lat="47.10672" lon="6.20116">
        <ele>545.705017</ele>
        <time>2020-08-22T08:40:10Z</time>
      </trkpt>
      <trkpt lat="47.10661" lon="6.20154">
        <ele>548.838379</ele>
        <time>2020-08-22T08:40:16Z</time>
      </trkpt>
      <trkpt lat="47.1055" lon="6.20286">
        <ele>561.640076</ele>
        <time>2020-08-22T08:40:50Z</time>
      </trkpt>
      <trkpt lat="47.10537" lon="6.20313">
        <ele>563.820007</ele>
        <time>2020-08-22T08:40:55Z</time>
      </trkpt>
      <trkpt lat="47.1053" lon="6.20352">
        <ele>566.345032</ele>
        <time>2020-08-22T08:41:01Z</time>
      </trkpt>
      <trkpt lat="47.10528" lon="6.2039">
        <ele>568.844177</ele>
        <time>2020-08-22T08:41:07Z</time>
      </trkpt>
      <trkpt lat="47.10532" lon="6.20429">
        <ele>571.49054</ele>
        <time>2020-08-22T08:41:14Z</time>
      </trkpt>
      <trkpt lat="47.10545" lon="6.20476">
        <ele>574.356812</ele>
        <time>2020-08-22T08:41:22Z</time>
      </trkpt>
      <trkpt lat="47.10548" lon="6.2051">
        <ele>577.003723</ele>
        <time>2020-08-22T08:41:27Z</time>
      </trkpt>
      <trkpt lat="47.10537" lon="6.20539">
        <ele>578.649353</ele>
        <time>2020-08-22T08:41:32Z</time>
      </trkpt>
      <trkpt lat="47.10497" lon="6.20609">
        <ele>581.150574</ele>
        <time>2020-08-22T08:41:47Z</time>
      </trkpt>
      <trkpt lat="47.10409" lon="6.20843">
        <ele>588.460083</ele>
        <time>2020-08-22T08:42:29Z</time>
      </trkpt>
      <trkpt lat="47.10389" lon="6.20885">
        <ele>592.536011</ele>
        <time>2020-08-22T08:42:38Z</time>
      </trkpt>
      <trkpt lat="47.10378" lon="6.20914">
        <ele>594.022827</ele>
        <time>2020-08-22T08:42:43Z</time>
      </trkpt>
      <trkpt lat="47.1037" lon="6.20944">
        <ele>595.33606</ele>
        <time>2020-08-22T08:42:48Z</time>
      </trkpt>
      <trkpt lat="47.10373" lon="6.21029">
        <ele>596.244568</ele>
        <time>2020-08-22T08:43:01Z</time>
      </trkpt>
      <trkpt lat="47.10393" lon="6.21112">
        <ele>597.54248</ele>
        <time>2020-08-22T08:43:15Z</time>
      </trkpt>
      <trkpt lat="47.10401" lon="6.21159">
        <ele>598.302246</ele>
        <time>2020-08-22T08:43:23Z</time>
      </trkpt>
      <trkpt lat="47.10399" lon="6.21203">
        <ele>598.939026</ele>
        <time>2020-08-22T08:43:30Z</time>
      </trkpt>
      <trkpt lat="47.10347" lon="6.21316">
        <ele>598.939148</ele>
        <time>2020-08-22T08:43:52Z</time>
      </trkpt>
      <trkpt lat="47.10378" lon="6.21317">
        <ele>595.573181</ele>
        <time>2020-08-22T08:43:59Z</time>
      </trkpt>
      <trkpt lat="47.10438" lon="6.21308">
        <ele>593.253967</ele>
        <time>2020-08-22T08:44:13Z</time>
      </trkpt>
      <trkpt lat="47.10472" lon="6.2129">
        <ele>594.553223</ele>
        <time>2020-08-22T08:44:22Z</time>
      </trkpt>
      <trkpt lat="47.1049" lon="6.21294">
        <ele>594.074951</ele>
        <time>2020-08-22T08:44:26Z</time>
      </trkpt>
      <trkpt lat="47.105" lon="6.21304">
        <ele>592.608093</ele>
        <time>2020-08-22T08:44:29Z</time>
      </trkpt>
      <trkpt lat="47.10558" lon="6.21316">
        <ele>587.27002</ele>
        <time>2020-08-22T08:44:42Z</time>
      </trkpt>
      <trkpt lat="47.10592" lon="6.21299">
        <ele>585.710022</ele>
        <time>2020-08-22T08:44:51Z</time>
      </trkpt>
      <trkpt lat="47.10603" lon="6.21281">
        <ele>583.35498</ele>
        <time>2020-08-22T08:44:55Z</time>
      </trkpt>
      <trkpt lat="47.1061" lon="6.21258">
        <ele>581.73877</ele>
        <time>2020-08-22T08:44:59Z</time>
      </trkpt>
      <trkpt lat="47.1061" lon="6.2124">
        <ele>581.601257</ele>
        <time>2020-08-22T08:45:01Z</time>
      </trkpt>
      <trkpt lat="47.10595" lon="6.2118">
        <ele>577.380188</ele>
        <time>2020-08-22T08:45:12Z</time>
      </trkpt>
      <trkpt lat="47.10594" lon="6.21152">
        <ele>574.018372</ele>
        <time>2020-08-22T08:45:16Z</time>
      </trkpt>
      <trkpt lat="47.10603" lon="6.21137">
        <ele>570.846375</ele>
        <time>2020-08-22T08:45:19Z</time>
      </trkpt>
      <trkpt lat="47.10618" lon="6.21128">
        <ele>567.769958</ele>
        <time>2020-08-22T08:45:23Z</time>
      </trkpt>
      <trkpt lat="47.10629" lon="6.21128">
        <ele>566.311401</ele>
        <time>2020-08-22T08:45:26Z</time>
      </trkpt>
      <trkpt lat="47.10642" lon="6.21143">
        <ele>566.14624</ele>
        <time>2020-08-22T08:45:30Z</time>
      </trkpt>
      <trkpt lat="47.10665" lon="6.21185">
        <ele>566.904785</ele>
        <time>2020-08-22T08:45:38Z</time>
      </trkpt>
      <trkpt lat="47.10682" lon="6.21209">
        <ele>566.308289</ele>
        <time>2020-08-22T08:45:44Z</time>
      </trkpt>
      <trkpt lat="47.10695" lon="6.21209">
        <ele>564.664734</ele>
        <time>2020-08-22T08:45:47Z</time>
      </trkpt>
      <trkpt lat="47.10708" lon="6.21215">
        <ele>563.383606</ele>
        <time>2020-08-22T08:45:50Z</time>
      </trkpt>
      <trkpt lat="47.10714" lon="6.21232">
        <ele>563.612793</ele>
        <time>2020-08-22T08:45:53Z</time>
      </trkpt>
      <trkpt lat="47.1071" lon="6.21253">
        <ele>564.710266</ele>
        <time>2020-08-22T08:45:56Z</time>
      </trkpt>
      <trkpt lat="47.10698" lon="6.21281">
        <ele>565.040161</ele>
        <time>2020-08-22T08:46:02Z</time>
      </trkpt>
      <trkpt lat="47.10623" lon="6.21366">
        <ele>570.119629</ele>
        <time>2020-08-22T08:46:24Z</time>
      </trkpt>
      <trkpt lat="47.1059" lon="6.21387">
        <ele>567.14386</ele>
        <time>2020-08-22T08:46:32Z</time>
      </trkpt>
      <trkpt lat="47.10563" lon="6.21401">
        <ele>563.462524</ele>
        <time>2020-08-22T08:46:39Z</time>
      </trkpt>
      <trkpt lat="47.10543" lon="6.21404">
        <ele>563.467468</ele>
        <time>2020-08-22T08:46:43Z</time>
      </trkpt>
      <trkpt lat="47.1045" lon="6.21407">
        <ele>574.06488</ele>
        <time>2020-08-22T08:47:05Z</time>
      </trkpt>
      <trkpt lat="47.10433" lon="6.2141">
        <ele>576.294373</ele>
        <time>2020-08-22T08:47:09Z</time>
      </trkpt>
      <trkpt lat="47.10425" lon="6.21422">
        <ele>575.50647</ele>
        <time>2020-08-22T08:47:12Z</time>
      </trkpt>
      <trkpt lat="47.10422" lon="6.21433">
        <ele>575.86377</ele>
        <time>2020-08-22T08:47:14Z</time>
      </trkpt>
      <trkpt lat="47.10428" lon="6.21449">
        <ele>574.505005</ele>
        <time>2020-08-22T08:47:17Z</time>
      </trkpt>
      <trkpt lat="47.10516" lon="6.21575">
        <ele>564.717529</ele>
        <time>2020-08-22T08:47:45Z</time>
      </trkpt>
      <trkpt lat="47.10587" lon="6.21639">
        <ele>567.516235</ele>
        <time>2020-08-22T08:48:05Z</time>
      </trkpt>
      <trkpt lat="47.10614" lon="6.21669">
        <ele>569.461243</ele>
        <time>2020-08-22T08:48:13Z</time>
      </trkpt>
      <trkpt lat="47.10688" lon="6.21732">
        <ele>568.950012</ele>
        <time>2020-08-22T08:48:33Z</time>
      </trkpt>
      <trkpt lat="47.10722" lon="6.21783">
        <ele>570.591309</ele>
        <time>2020-08-22T08:48:44Z</time>
      </trkpt>
      <trkpt lat="47.10788" lon="6.2187">
        <ele>573.010376</ele>
        <time>2020-08-22T08:49:05Z</time>
      </trkpt>
      <trkpt lat="47.1083" lon="6.21931">
        <ele>574.077393</ele>
        <time>2020-08-22T08:49:19Z</time>
      </trkpt>
      <trkpt lat="47.1087" lon="6.22019">
        <ele>576.088745</ele>
        <time>2020-08-22T08:49:35Z</time>
      </trkpt>
      <trkpt lat="47.109" lon="6.22069">
        <ele>576.644531</ele>
        <time>2020-08-22T08:49:46Z</time>
      </trkpt>
      <trkpt lat="47.10929" lon="6.22111">
        <ele>579.882568</ele>
        <time>2020-08-22T08:49:55Z</time>
      </trkpt>
      <trkpt lat="47.10945" lon="6.22149">
        <ele>582.280029</ele>
        <time>2020-08-22T08:50:03Z</time>
      </trkpt>
      <trkpt lat="47.10956" lon="6.22194">
        <ele>585.51001</ele>
        <time>2020-08-22T08:50:10Z</time>
      </trkpt>
      <trkpt lat="47.10961" lon="6.22241">
        <ele>588.182739</ele>
        <time>2020-08-22T08:50:18Z</time>
      </trkpt>
      <trkpt lat="47.10951" lon="6.2228">
        <ele>592.29187</ele>
        <time>2020-08-22T08:50:24Z</time>
      </trkpt>
      <trkpt lat="47.10927" lon="6.22311">
        <ele>594.35321</ele>
        <time>2020-08-22T08:50:32Z</time>
      </trkpt>
      <trkpt lat="47.10875" lon="6.22366">
        <ele>596.039063</ele>
        <time>2020-08-22T08:50:47Z</time>
      </trkpt>
      <trkpt lat="47.10839" lon="6.22408">
        <ele>596.017517</ele>
        <time>2020-08-22T08:50:57Z</time>
      </trkpt>
      <trkpt lat="47.10835" lon="6.22421">
        <ele>596.138733</ele>
        <time>2020-08-22T08:51:00Z</time>
      </trkpt>
      <trkpt lat="47.1086" lon="6.22458">
        <ele>597</ele>
        <time>2020-08-22T08:51:08Z</time>
      </trkpt>
      <trkpt lat="47.10879" lon="6.22497">
        <ele>597</ele>
        <time>2020-08-22T08:51:16Z</time>
      </trkpt>
      <trkpt lat="47.10893" lon="6.2255">
        <ele>597</ele>
        <time>2020-08-22T08:51:25Z</time>
      </trkpt>
      <trkpt lat="47.10956" lon="6.22691">
        <ele>597</ele>
        <time>2020-08-22T08:51:52Z</time>
      </trkpt>
      <trkpt lat="47.1101" lon="6.22844">
        <ele>595.722778</ele>
        <time>2020-08-22T08:52:19Z</time>
      </trkpt>
      <trkpt lat="47.11022" lon="6.22897">
        <ele>595.30658</ele>
        <time>2020-08-22T08:52:28Z</time>
      </trkpt>
      <trkpt lat="47.1103" lon="6.22948">
        <ele>595.065186</ele>
        <time>2020-08-22T08:52:36Z</time>
      </trkpt>
      <trkpt lat="47.11025" lon="6.23016">
        <ele>595.238708</ele>
        <time>2020-08-22T08:52:47Z</time>
      </trkpt>
      <trkpt lat="47.11016" lon="6.2306">
        <ele>596.130432</ele>
        <time>2020-08-22T08:52:54Z</time>
      </trkpt>
      <trkpt lat="47.10988" lon="6.23071">
        <ele>595.929077</ele>
        <time>2020-08-22T08:53:01Z</time>
      </trkpt>
      <trkpt lat="47.1094" lon="6.23085">
        <ele>596.219971</ele>
        <time>2020-08-22T08:53:12Z</time>
      </trkpt>
      <trkpt lat="47.10901" lon="6.23091">
        <ele>596.07843</ele>
        <time>2020-08-22T08:53:22Z</time>
      </trkpt>
      <trkpt lat="47.10849" lon="6.23093">
        <ele>595.245239</ele>
        <time>2020-08-22T08:53:34Z</time>
      </trkpt>
      <trkpt lat="47.10827" lon="6.23124">
        <ele>594.774536</ele>
        <time>2020-08-22T08:53:41Z</time>
      </trkpt>
      <trkpt lat="47.10776" lon="6.23209">
        <ele>592.607544</ele>
        <time>2020-08-22T08:53:59Z</time>
      </trkpt>
      <trkpt lat="47.1072" lon="6.23273">
        <ele>591.748718</ele>
        <time>2020-08-22T08:54:15Z</time>
      </trkpt>
      <trkpt lat="47.10689" lon="6.23291">
        <ele>593.125</ele>
        <time>2020-08-22T08:54:23Z</time>
      </trkpt>
      <trkpt lat="47.10654" lon="6.23294">
        <ele>594.067505</ele>
        <time>2020-08-22T08:54:31Z</time>
      </trkpt>
      <trkpt lat="47.10599" lon="6.23292">
        <ele>596</ele>
        <time>2020-08-22T08:54:44Z</time>
      </trkpt>
      <trkpt lat="47.1056" lon="6.23283">
        <ele>596</ele>
        <time>2020-08-22T08:54:54Z</time>
      </trkpt>
      <trkpt lat="47.10514" lon="6.23286">
        <ele>594.01001</ele>
        <time>2020-08-22T08:55:04Z</time>
      </trkpt>
      <trkpt lat="47.10479" lon="6.23284">
        <ele>592.868469</ele>
        <time>2020-08-22T08:55:12Z</time>
      </trkpt>
      <trkpt lat="47.10423" lon="6.23237">
        <ele>593.561279</ele>
        <time>2020-08-22T08:55:28Z</time>
      </trkpt>
      <trkpt lat="47.1039" lon="6.23233">
        <ele>594.960022</ele>
        <time>2020-08-22T08:55:35Z</time>
      </trkpt>
      <trkpt lat="47.10284" lon="6.23237">
        <ele>597.55249</ele>
        <time>2020-08-22T08:56:00Z</time>
      </trkpt>
      <trkpt lat="47.10248" lon="6.23241">
        <ele>599.344971</ele>
        <time>2020-08-22T08:56:08Z</time>
      </trkpt>
      <trkpt lat="47.10181" lon="6.23259">
        <ele>600.375671</ele>
        <time>2020-08-22T08:56:24Z</time>
      </trkpt>
      <trkpt lat="47.10146" lon="6.23258">
        <ele>600.87207</ele>
        <time>2020-08-22T08:56:33Z</time>
      </trkpt>
      <trkpt lat="47.10113" lon="6.2326">
        <ele>600.666382</ele>
        <time>2020-08-22T08:56:40Z</time>
      </trkpt>
      <trkpt lat="47.1008" lon="6.23268">
        <ele>600.551147</ele>
        <time>2020-08-22T08:56:48Z</time>
      </trkpt>
      <trkpt lat="47.1004" lon="6.23282">
        <ele>600.720947</ele>
        <time>2020-08-22T08:56:58Z</time>
      </trkpt>
      <trkpt lat="47.09963" lon="6.23327">
        <ele>601.270996</ele>
        <time>2020-08-22T08:57:17Z</time>
      </trkpt>
      <trkpt lat="47.09907" lon="6.23353">
        <ele>603.925842</ele>
        <time>2020-08-22T08:57:31Z</time>
      </trkpt>
      <trkpt lat="47.09783" lon="6.234">
        <ele>611.534302</ele>
        <time>2020-08-22T08:58:01Z</time>
      </trkpt>
      <trkpt lat="47.09747" lon="6.23402">
        <ele>612.463806</ele>
        <time>2020-08-22T08:58:09Z</time>
      </trkpt>
      <trkpt lat="47.09662" lon="6.23417">
        <ele>610.04071</ele>
        <time>2020-08-22T08:58:29Z</time>
      </trkpt>
      <trkpt lat="47.09632" lon="6.23435">
        <ele>608.155518</ele>
        <time>2020-08-22T08:58:37Z</time>
      </trkpt>
      <trkpt lat="47.09586" lon="6.23477">
        <ele>606</ele>
        <time>2020-08-22T08:58:49Z</time>
      </trkpt>
      <trkpt lat="47.09551" lon="6.23491">
        <ele>606</ele>
        <time>2020-08-22T08:58:58Z</time>
      </trkpt>
      <trkpt lat="47.09525" lon="6.23467">
        <ele>606.039978</ele>
        <time>2020-08-22T08:59:05Z</time>
      </trkpt>
      <trkpt lat="47.09496" lon="6.23447">
        <ele>606.641846</ele>
        <time>2020-08-22T08:59:12Z</time>
      </trkpt>
      <trkpt lat="47.09474" lon="6.23442">
        <ele>606.98407</ele>
        <time>2020-08-22T08:59:18Z</time>
      </trkpt>
      <trkpt lat="47.09459" lon="6.23446">
        <ele>607</ele>
        <time>2020-08-22T08:59:21Z</time>
      </trkpt>
      <trkpt lat="47.09419" lon="6.23426">
        <ele>607</ele>
        <time>2020-08-22T08:59:31Z</time>
      </trkpt>
      <trkpt lat="47.09289" lon="6.23397">
        <ele>607.096741</ele>
        <time>2020-08-22T09:00:02Z</time>
      </trkpt>
      <trkpt lat="47.09182" lon="6.23363">
        <ele>608.630798</ele>
        <time>2020-08-22T09:00:27Z</time>
      </trkpt>
      <trkpt lat="47.0914" lon="6.23337">
        <ele>609</ele>
        <time>2020-08-22T09:00:38Z</time>
      </trkpt>
      <trkpt lat="47.08953" lon="6.23236">
        <ele>609.912476</ele>
        <time>2020-08-22T09:01:24Z</time>
      </trkpt>
      <trkpt lat="47.08686" lon="6.23107">
        <ele>613.036011</ele>
        <time>2020-08-22T09:02:30Z</time>
      </trkpt>
      <trkpt lat="47.08623" lon="6.23083">
        <ele>613.628174</ele>
        <time>2020-08-22T09:02:45Z</time>
      </trkpt>
      <trkpt lat="47.08566" lon="6.23054">
        <ele>614.880371</ele>
        <time>2020-08-22T09:02:59Z</time>
      </trkpt>
      <trkpt lat="47.085" lon="6.23004">
        <ele>615.867493</ele>
        <time>2020-08-22T09:03:17Z</time>
      </trkpt>
      <trkpt lat="47.08455" lon="6.22982">
        <ele>617.617554</ele>
        <time>2020-08-22T09:03:28Z</time>
      </trkpt>
      <trkpt lat="47.0841" lon="6.22939">
        <ele>621.229553</ele>
        <time>2020-08-22T09:03:40Z</time>
      </trkpt>
      <trkpt lat="47.08177" lon="6.22961">
        <ele>636.311279</ele>
        <time>2020-08-22T09:04:35Z</time>
      </trkpt>
      <trkpt lat="47.0811" lon="6.22974">
        <ele>641.203918</ele>
        <time>2020-08-22T09:04:51Z</time>
      </trkpt>
      <trkpt lat="47.08052" lon="6.22997">
        <ele>643.77002</ele>
        <time>2020-08-22T09:05:05Z</time>
      </trkpt>
      <trkpt lat="47.07965" lon="6.23026">
        <ele>647.587952</ele>
        <time>2020-08-22T09:05:25Z</time>
      </trkpt>
      <trkpt lat="47.07877" lon="6.23">
        <ele>650.765015</ele>
        <time>2020-08-22T09:05:46Z</time>
      </trkpt>
      <trkpt lat="47.07798" lon="6.2297">
        <ele>649.455017</ele>
        <time>2020-08-22T09:06:06Z</time>
      </trkpt>
      <trkpt lat="47.07739" lon="6.22956">
        <ele>647.423523</ele>
        <time>2020-08-22T09:06:19Z</time>
      </trkpt>
      <trkpt lat="47.07704" lon="6.22966">
        <ele>646.965881</ele>
        <time>2020-08-22T09:06:28Z</time>
      </trkpt>
      <trkpt lat="47.07651" lon="6.22972">
        <ele>646.616943</ele>
        <time>2020-08-22T09:06:40Z</time>
      </trkpt>
      <trkpt lat="47.07623" lon="6.22979">
        <ele>646.653748</ele>
        <time>2020-08-22T09:06:47Z</time>
      </trkpt>
      <trkpt lat="47.07605" lon="6.22946">
        <ele>646.172485</ele>
        <time>2020-08-22T09:06:54Z</time>
      </trkpt>
      <trkpt lat="47.0758" lon="6.22919">
        <ele>645.461426</ele>
        <time>2020-08-22T09:07:01Z</time>
      </trkpt>
      <trkpt lat="47.07524" lon="6.22866">
        <ele>642.824951</ele>
        <time>2020-08-22T09:07:16Z</time>
      </trkpt>
      <trkpt lat="47.07507" lon="6.22857">
        <ele>639.975647</ele>
        <time>2020-08-22T09:07:21Z</time>
      </trkpt>
      <trkpt lat="47.07458" lon="6.22865">
        <ele>636.245605</ele>
        <time>2020-08-22T09:07:32Z</time>
      </trkpt>
      <trkpt lat="47.07418" lon="6.2288">
        <ele>631.699402</ele>
        <time>2020-08-22T09:07:42Z</time>
      </trkpt>
      <trkpt lat="47.07386" lon="6.22898">
        <ele>631.223755</ele>
        <time>2020-08-22T09:07:50Z</time>
      </trkpt>
      <trkpt lat="47.07343" lon="6.22937">
        <ele>629.546997</ele>
        <time>2020-08-22T09:08:02Z</time>
      </trkpt>
      <trkpt lat="47.07318" lon="6.22956">
        <ele>626.923218</ele>
        <time>2020-08-22T09:08:08Z</time>
      </trkpt>
      <trkpt lat="47.07303" lon="6.22963">
        <ele>624.00354</ele>
        <time>2020-08-22T09:08:12Z</time>
      </trkpt>
      <trkpt lat="47.0728" lon="6.22967">
        <ele>617.687073</ele>
        <time>2020-08-22T09:08:17Z</time>
      </trkpt>
      <trkpt lat="47.07258" lon="6.2296">
        <ele>611.258362</ele>
        <time>2020-08-22T09:08:22Z</time>
      </trkpt>
      <trkpt lat="47.0717" lon="6.22912">
        <ele>588.139343</ele>
        <time>2020-08-22T09:08:44Z</time>
      </trkpt>
      <trkpt lat="47.07073" lon="6.22853">
        <ele>573.965454</ele>
        <time>2020-08-22T09:09:09Z</time>
      </trkpt>
      <trkpt lat="47.07038" lon="6.22804">
        <ele>559.285889</ele>
        <time>2020-08-22T09:09:20Z</time>
      </trkpt>
      <trkpt lat="47.07024" lon="6.22771">
        <ele>550.951477</ele>
        <time>2020-08-22T09:09:26Z</time>
      </trkpt>
      <trkpt lat="47.07015" lon="6.22734">
        <ele>540.998352</ele>
        <time>2020-08-22T09:09:33Z</time>
      </trkpt>
      <trkpt lat="47.07006" lon="6.22715">
        <ele>536.494324</ele>
        <time>2020-08-22T09:09:36Z</time>
      </trkpt>
      <trkpt lat="47.06972" lon="6.22679">
        <ele>532.20282</ele>
        <time>2020-08-22T09:09:46Z</time>
      </trkpt>
      <trkpt lat="47.07014" lon="6.22686">
        <ele>526.146301</ele>
        <time>2020-08-22T09:09:56Z</time>
      </trkpt>
      <trkpt lat="47.07036" lon="6.22705">
        <ele>528.126282</ele>
        <time>2020-08-22T09:10:02Z</time>
      </trkpt>
      <trkpt lat="47.07077" lon="6.22732">
        <ele>530.615601</ele>
        <time>2020-08-22T09:10:12Z</time>
      </trkpt>
      <trkpt lat="47.07067" lon="6.22716">
        <ele>525.734924</ele>
        <time>2020-08-22T09:10:16Z</time>
      </trkpt>
      <trkpt lat="47.07045" lon="6.22694">
        <ele>522.282959</ele>
        <time>2020-08-22T09:10:22Z</time>
      </trkpt>
      <trkpt lat="47.07002" lon="6.22643">
        <ele>512.96698</ele>
        <time>2020-08-22T09:10:35Z</time>
      </trkpt>
      <trkpt lat="47.06969" lon="6.22615">
        <ele>512.115295</ele>
        <time>2020-08-22T09:10:44Z</time>
      </trkpt>
      <trkpt lat="47.06953" lon="6.22598">
        <ele>510.168182</ele>
        <time>2020-08-22T09:10:49Z</time>
      </trkpt>
      <trkpt lat="47.06906" lon="6.22534">
        <ele>503.014191</ele>
        <time>2020-08-22T09:11:03Z</time>
      </trkpt>
      <trkpt lat="47.06865" lon="6.22445">
        <ele>491.33252</ele>
        <time>2020-08-22T09:11:21Z</time>
      </trkpt>
      <trkpt lat="47.06788" lon="6.22295">
        <ele>477.355255</ele>
        <time>2020-08-22T09:11:50Z</time>
      </trkpt>
      <trkpt lat="47.0677" lon="6.22269">
        <ele>475.25061</ele>
        <time>2020-08-22T09:11:56Z</time>
      </trkpt>
      <trkpt lat="47.06753" lon="6.22251">
        <ele>473.226898</ele>
        <time>2020-08-22T09:12:01Z</time>
      </trkpt>
      <trkpt lat="47.06723" lon="6.22227">
        <ele>470.449738</ele>
        <time>2020-08-22T09:12:09Z</time>
      </trkpt>
      <trkpt lat="47.0673" lon="6.22215">
        <ele>462.870605</ele>
        <time>2020-08-22T09:12:12Z</time>
      </trkpt>
      <trkpt lat="47.06752" lon="6.22221">
        <ele>460.305634</ele>
        <time>2020-08-22T09:12:17Z</time>
      </trkpt>
      <trkpt lat="47.06805" lon="6.22258">
        <ele>457.692505</ele>
        <time>2020-08-22T09:12:31Z</time>
      </trkpt>
      <trkpt lat="47.06851" lon="6.22311">
        <ele>456.603302</ele>
        <time>2020-08-22T09:12:44Z</time>
      </trkpt>
      <trkpt lat="47.06862" lon="6.22331">
        <ele>458.084991</ele>
        <time>2020-08-22T09:12:48Z</time>
      </trkpt>
      <trkpt lat="47.06877" lon="6.22336">
        <ele>452.429993</ele>
        <time>2020-08-22T09:12:52Z</time>
      </trkpt>
      <trkpt lat="47.0688" lon="6.22321">
        <ele>445.956238</ele>
        <time>2020-08-22T09:12:54Z</time>
      </trkpt>
      <trkpt lat="47.06886" lon="6.22308">
        <ele>438.644989</ele>
        <time>2020-08-22T09:12:57Z</time>
      </trkpt>
      <trkpt lat="47.06899" lon="6.22306">
        <ele>431.625</ele>
        <time>2020-08-22T09:13:00Z</time>
      </trkpt>
      <trkpt lat="47.06918" lon="6.2232">
        <ele>427.437012</ele>
        <time>2020-08-22T09:13:05Z</time>
      </trkpt>
      <trkpt lat="47.06928" lon="6.22322">
        <ele>423.505493</ele>
        <time>2020-08-22T09:13:07Z</time>
      </trkpt>
      <trkpt lat="47.06927" lon="6.22305">
        <ele>418.909637</ele>
        <time>2020-08-22T09:13:10Z</time>
      </trkpt>
      <trkpt lat="47.06863" lon="6.22188">
        <ele>408.718811</ele>
        <time>2020-08-22T09:13:34Z</time>
      </trkpt>
      <trkpt lat="47.06856" lon="6.22156">
        <ele>399.056763</ele>
        <time>2020-08-22T09:13:39Z</time>
      </trkpt>
      <trkpt lat="47.06861" lon="6.22137">
        <ele>393.823242</ele>
        <time>2020-08-22T09:13:43Z</time>
      </trkpt>
      <trkpt lat="47.06886" lon="6.22117">
        <ele>385.159241</ele>
        <time>2020-08-22T09:13:49Z</time>
      </trkpt>
      <trkpt lat="47.06874" lon="6.22092">
        <ele>382.593689</ele>
        <time>2020-08-22T09:13:54Z</time>
      </trkpt>
      <trkpt lat="47.06826" lon="6.22011">
        <ele>378.127075</ele>
        <time>2020-08-22T09:14:11Z</time>
      </trkpt>
      <trkpt lat="47.06754" lon="6.21915">
        <ele>369.413269</ele>
        <time>2020-08-22T09:14:34Z</time>
      </trkpt>
      <trkpt lat="47.06732" lon="6.21892">
        <ele>366.734985</ele>
        <time>2020-08-22T09:14:40Z</time>
      </trkpt>
      <trkpt lat="47.06705" lon="6.21878">
        <ele>365.369598</ele>
        <time>2020-08-22T09:14:47Z</time>
      </trkpt>
      <trkpt lat="47.06651" lon="6.21864">
        <ele>363.117462</ele>
        <time>2020-08-22T09:15:00Z</time>
      </trkpt>
      <trkpt lat="47.0663" lon="6.21847">
        <ele>360.604706</ele>
        <time>2020-08-22T09:15:05Z</time>
      </trkpt>
      <trkpt lat="47.06612" lon="6.21821">
        <ele>357.558838</ele>
        <time>2020-08-22T09:15:11Z</time>
      </trkpt>
      <trkpt lat="47.06582" lon="6.21769">
        <ele>354.799896</ele>
        <time>2020-08-22T09:15:22Z</time>
      </trkpt>
      <trkpt lat="47.06589" lon="6.21752">
        <ele>354.81662</ele>
        <time>2020-08-22T09:15:25Z</time>
      </trkpt>
      <trkpt lat="47.06602" lon="6.21739">
        <ele>354.939667</ele>
        <time>2020-08-22T09:15:29Z</time>
      </trkpt>
      <trkpt lat="47.06623" lon="6.21679">
        <ele>354.04184</ele>
        <time>2020-08-22T09:15:40Z</time>
      </trkpt>
      <trkpt lat="47.0661" lon="6.21667">
        <ele>353.862488</ele>
        <time>2020-08-22T09:15:43Z</time>
      </trkpt>
      <trkpt lat="47.06603" lon="6.21673">
        <ele>353.961243</ele>
        <time>2020-08-22T09:15:45Z</time>
      </trkpt>
      <trkpt lat="47.06596" lon="6.2167">
        <ele>353.923737</ele>
        <time>2020-08-22T09:15:47Z</time>
      </trkpt>
      <trkpt lat="47.06573" lon="6.21629">
        <ele>353.326263</ele>
        <time>2020-08-22T09:15:55Z</time>
      </trkpt>
      <trkpt lat="47.06564" lon="6.2162">
        <ele>353.200012</ele>
        <time>2020-08-22T09:15:58Z</time>
      </trkpt>
      <trkpt lat="47.06553" lon="6.21615">
        <ele>352.754181</ele>
        <time>2020-08-22T09:16:00Z</time>
      </trkpt>
      <trkpt lat="47.06519" lon="6.21611">
        <ele>351.291077</ele>
        <time>2020-08-22T09:16:08Z</time>
      </trkpt>
      <trkpt lat="47.06508" lon="6.21613">
        <ele>351.073212</ele>
        <time>2020-08-22T09:16:11Z</time>
      </trkpt>
      <trkpt lat="47.06499" lon="6.21619">
        <ele>351.01001</ele>
        <time>2020-08-22T09:16:13Z</time>
      </trkpt>
      <trkpt lat="47.06479" lon="6.21606">
        <ele>350.238037</ele>
        <time>2020-08-22T09:16:18Z</time>
      </trkpt>
      <trkpt lat="47.06464" lon="6.21604">
        <ele>350.028473</ele>
        <time>2020-08-22T09:16:22Z</time>
      </trkpt>
      <trkpt lat="47.06442" lon="6.21591">
        <ele>349.967072</ele>
        <time>2020-08-22T09:16:27Z</time>
      </trkpt>
      <trkpt lat="47.06424" lon="6.21573">
        <ele>350.135986</ele>
        <time>2020-08-22T09:16:33Z</time>
      </trkpt>
      <trkpt lat="47.06409" lon="6.21502">
        <ele>350.766296</ele>
        <time>2020-08-22T09:16:44Z</time>
      </trkpt>
      <trkpt lat="47.0641" lon="6.21482">
        <ele>350.612</ele>
        <time>2020-08-22T09:16:48Z</time>
      </trkpt>
      <trkpt lat="47.06415" lon="6.21466">
        <ele>350.389984</ele>
        <time>2020-08-22T09:16:50Z</time>
      </trkpt>
      <trkpt lat="47.06422" lon="6.21459">
        <ele>350.230011</ele>
        <time>2020-08-22T09:16:52Z</time>
      </trkpt>
      <trkpt lat="47.06426" lon="6.21445">
        <ele>350.154999</ele>
        <time>2020-08-22T09:16:55Z</time>
      </trkpt>
      <trkpt lat="47.06428" lon="6.21421">
        <ele>350.125</ele>
        <time>2020-08-22T09:16:59Z</time>
      </trkpt>
      <trkpt lat="47.06435" lon="6.21385">
        <ele>350.223755</ele>
        <time>2020-08-22T09:17:05Z</time>
      </trkpt>
      <trkpt lat="47.06439" lon="6.21296">
        <ele>351.524811</ele>
        <time>2020-08-22T09:17:19Z</time>
      </trkpt>
      <trkpt lat="47.0645" lon="6.21234">
        <ele>351.754364</ele>
        <time>2020-08-22T09:17:29Z</time>
      </trkpt>
      <trkpt lat="47.06487" lon="6.21122">
        <ele>350.482086</ele>
        <time>2020-08-22T09:17:49Z</time>
      </trkpt>
      <trkpt lat="47.06528" lon="6.20974">
        <ele>348.867493</ele>
        <time>2020-08-22T09:18:14Z</time>
      </trkpt>
      <trkpt lat="47.06539" lon="6.20975">
        <ele>347.534912</ele>
        <time>2020-08-22T09:18:17Z</time>
      </trkpt>
      <trkpt lat="47.06554" lon="6.20971">
        <ele>346.143829</ele>
        <time>2020-08-22T09:18:20Z</time>
      </trkpt>
      <trkpt lat="47.06596" lon="6.20942">
        <ele>345.029999</ele>
        <time>2020-08-22T09:18:31Z</time>
      </trkpt>
      <trkpt lat="47.06618" lon="6.20912">
        <ele>345.919403</ele>
        <time>2020-08-22T09:18:38Z</time>
      </trkpt>
      <trkpt lat="47.06642" lon="6.20873">
        <ele>346.398285</ele>
        <time>2020-08-22T09:18:46Z</time>
      </trkpt>
      <trkpt lat="47.06661" lon="6.20851">
        <ele>345.541962</ele>
        <time>2020-08-22T09:18:52Z</time>
      </trkpt>
      <trkpt lat="47.06697" lon="6.20775">
        <ele>345.401245</ele>
        <time>2020-08-22T09:19:07Z</time>
      </trkpt>
      <trkpt lat="47.06708" lon="6.20732">
        <ele>346.535461</ele>
        <time>2020-08-22T09:19:14Z</time>
      </trkpt>
      <trkpt lat="47.06727" lon="6.2069">
        <ele>348.094971</ele>
        <time>2020-08-22T09:19:22Z</time>
      </trkpt>
      <trkpt lat="47.0672" lon="6.20674">
        <ele>348.453247</ele>
        <time>2020-08-22T09:19:25Z</time>
      </trkpt>
      <trkpt lat="47.06709" lon="6.20661">
        <ele>348.97171</ele>
        <time>2020-08-22T09:19:29Z</time>
      </trkpt>
      <trkpt lat="47.06711" lon="6.20648">
        <ele>349.304108</ele>
        <time>2020-08-22T09:19:31Z</time>
      </trkpt>
      <trkpt lat="47.06718" lon="6.20635">
        <ele>349.416321</ele>
        <time>2020-08-22T09:19:33Z</time>
      </trkpt>
      <trkpt lat="47.06725" lon="6.20595">
        <ele>350.961609</ele>
        <time>2020-08-22T09:19:40Z</time>
      </trkpt>
      <trkpt lat="47.06715" lon="6.20584">
        <ele>352.071075</ele>
        <time>2020-08-22T09:19:43Z</time>
      </trkpt>
      <trkpt lat="47.06714" lon="6.20567">
        <ele>353.044373</ele>
        <time>2020-08-22T09:19:45Z</time>
      </trkpt>
      <trkpt lat="47.06726" lon="6.20551">
        <ele>353.594696</ele>
        <time>2020-08-22T09:19:49Z</time>
      </trkpt>
      <trkpt lat="47.06754" lon="6.20537">
        <ele>352.498016</ele>
        <time>2020-08-22T09:19:56Z</time>
      </trkpt>
      <trkpt lat="47.06804" lon="6.20517">
        <ele>349.505005</ele>
        <time>2020-08-22T09:20:08Z</time>
      </trkpt>
      <trkpt lat="47.06841" lon="6.20497">
        <ele>348.704559</ele>
        <time>2020-08-22T09:20:17Z</time>
      </trkpt>
      <trkpt lat="47.06872" lon="6.20486">
        <ele>347.283539</ele>
        <time>2020-08-22T09:20:25Z</time>
      </trkpt>
    </trkseg>
  </trk>
</gpx>